Time;durP1;ratioP1;P1;durP2;ratioP2;P2;SDS_P1;SDS_P2;PMS_P1;PMS_P2;Temp;Humidity;BMP_temperature;BMP_pressure;BME280_temperature;BME280_humidity;BME280_pressure;Samples;Min_cycle;Max_cycle;Signal;HPM_P1;HPM_P2
2023/08/10 00:01:54;;;;;;;10.20;2.70;;;;;;;-141.23;100.00;62281.09;5035401;28;20045;-67
2023/08/10 00:04:20;;;;;;;6.57;2.90;;;;;;;-141.23;100.00;62281.09;5035096;28;20056;-67
2023/08/10 00:06:45;;;;;;;5.35;2.53;;;;;;;-141.23;100.00;62281.09;5035528;28;20052;-67
2023/08/10 00:09:14;;;;;;;6.60;2.80;;;;;;;-141.23;100.00;62281.09;5034383;28;20472;-68
2023/08/10 00:11:40;;;;;;;13.65;3.10;;;;;;;-141.23;100.00;62281.09;5035233;28;20131;-68
2023/08/10 00:14:05;;;;;;;5.68;2.80;;;;;;;-141.23;100.00;62281.09;5034056;28;20541;-68
2023/08/10 00:16:32;;;;;;;5.25;2.90;;;;;;;-141.23;100.00;62281.09;5033974;28;20068;-67
2023/08/10 00:18:58;;;;;;;7.45;3.05;;;;;;;-141.23;100.00;62281.09;5017294;28;20037;-67
2023/08/10 00:21:24;;;;;;;8.25;3.33;;;;;;;-141.23;100.00;62281.09;5034106;28;20494;-67
2023/08/10 00:23:51;;;;;;;8.38;3.05;;;;;;;-141.23;100.00;62281.09;5035009;28;20151;-67
2023/08/10 00:26:16;;;;;;;7.43;3.00;;;;;;;-141.23;100.00;62281.09;5033806;28;20144;-67
2023/08/10 00:28:42;;;;;;;11.90;2.67;;;;;;;-141.23;100.00;62281.09;5033774;28;20491;-68
2023/08/10 00:31:08;;;;;;;8.73;2.70;;;;;;;-141.23;100.00;62281.09;5033792;28;20042;-68
2023/08/10 00:33:34;;;;;;;3.42;2.55;;;;;;;-141.23;100.00;62281.09;5034586;28;20044;-67
2023/08/10 00:36:06;;;;;;;12.60;3.42;;;;;;;-141.23;100.00;62281.09;5033522;28;20045;-67
2023/08/10 00:38:38;;;;;;;6.45;2.83;;;;;;;-141.23;100.00;62281.09;5033798;28;20103;-67
2023/08/10 00:41:04;;;;;;;7.78;3.40;;;;;;;-141.23;100.00;62281.09;5033589;28;20060;-67
2023/08/10 00:43:29;;;;;;;6.88;3.13;;;;;;;-141.23;100.00;62281.09;5033302;28;20053;-67
2023/08/10 00:45:55;;;;;;;13.20;3.42;;;;;;;-141.23;100.00;62281.09;5034478;28;20102;-67
2023/08/10 00:48:22;;;;;;;7.72;3.28;;;;;;;-141.23;100.00;62281.09;5033366;28;20045;-67
2023/08/10 00:50:49;;;;;;;6.97;3.10;;;;;;;-141.23;100.00;62281.09;5033630;28;20068;-68
2023/08/10 00:53:16;;;;;;;8.05;3.40;;;;;;;-141.23;100.00;62281.09;5033373;28;20029;-68
2023/08/10 00:55:43;;;;;;;10.43;3.65;;;;;;;-141.23;100.00;62281.09;5034493;28;20049;-67
2023/08/10 00:58:11;;;;;;;8.60;3.92;;;;;;;-141.23;100.00;62281.09;5035206;28;20041;-68
2023/08/10 01:00:40;;;;;;;6.22;3.83;;;;;;;-141.23;100.00;62281.09;5033191;28;20045;-67
2023/08/10 01:03:06;;;;;;;6.70;3.67;;;;;;;-141.23;100.00;62281.09;5016659;28;20103;-68
2023/08/10 01:05:34;;;;;;;8.57;3.60;;;;;;;-141.23;100.00;62281.09;4999987;28;20041;-68
2023/08/10 01:08:06;;;;;;;8.27;3.47;;;;;;;-141.23;100.00;62281.09;5032671;28;20045;-68
2023/08/10 01:10:39;;;;;;;11.10;3.55;;;;;;;-141.23;100.00;62281.09;5016432;28;20431;-68
2023/08/10 01:13:11;;;;;;;11.57;3.40;;;;;;;-141.23;100.00;62281.09;5016348;28;20485;-68
2023/08/10 01:15:45;;;;;;;9.23;4.00;;;;;;;-141.23;100.00;62281.09;5033455;28;20057;-69
2023/08/10 01:18:15;;;;;;;8.25;3.40;;;;;;;-141.23;100.00;62281.09;5033132;28;20049;-68
2023/08/10 01:20:43;;;;;;;9.82;3.80;;;;;;;-141.23;100.00;62281.09;5033875;28;20484;-68
2023/08/10 01:23:26;;;;;;;11.07;3.42;;;;;;;-141.23;100.00;62281.09;5032833;28;20107;-68
2023/08/10 01:26:02;;;;;;;7.65;3.60;;;;;;;-141.23;100.00;62281.09;5033127;28;20052;-67
2023/08/10 01:28:32;;;;;;;6.60;3.38;;;;;;;-141.23;100.00;62281.09;5033297;28;20045;-68
2023/08/10 01:31:00;;;;;;;6.75;3.15;;;;;;;-141.23;100.00;62281.09;5031938;28;20038;-68
2023/08/10 01:33:29;;;;;;;6.40;3.53;;;;;;;-141.23;100.00;62281.09;5032517;28;20075;-68
2023/08/10 01:35:55;;;;;;;8.38;3.10;;;;;;;-141.23;100.00;62281.09;5032638;28;20080;-67
2023/08/10 01:38:22;;;;;;;6.60;2.97;;;;;;;-141.23;100.00;62281.09;5033431;28;20053;-69
2023/08/10 01:44:33;;;;;;;7.95;3.25;;;;;;;-141.23;100.00;62281.09;5033804;28;20488;-68
2023/08/10 01:47:01;;;;;;;10.57;3.60;;;;;;;-141.23;100.00;62281.09;5032688;28;20049;-68
2023/08/10 01:49:30;;;;;;;7.20;3.08;;;;;;;-141.23;100.00;62281.09;5016201;28;20103;-67
2023/08/10 01:51:58;;;;;;;7.32;3.55;;;;;;;-141.23;100.00;62281.09;4999347;28;20041;-67
2023/08/10 01:54:24;;;;;;;7.07;3.10;;;;;;;-141.23;100.00;62281.09;5015871;28;20429;-67
2023/08/10 01:56:50;;;;;;;9.75;3.42;;;;;;;-141.23;100.00;62281.09;5015977;28;20130;-68
2023/08/10 01:59:16;;;;;;;9.10;3.10;;;;;;;-141.23;100.00;62281.09;5015881;28;20060;-69
2023/08/10 02:01:42;;;;;;;8.48;3.92;;;;;;;-141.23;100.00;62281.09;5032090;28;20029;-68
2023/08/10 02:04:08;;;;;;;7.57;3.05;;;;;;;-141.23;100.00;62281.09;4999032;28;20041;-68
2023/08/10 02:06:39;;;;;;;10.27;3.20;;;;;;;-141.23;100.00;62281.09;5031726;28;20362;-68
2023/08/10 02:09:05;;;;;;;9.48;3.17;;;;;;;-141.23;100.00;62281.09;5031970;28;20059;-69
2023/08/10 02:11:31;;;;;;;7.50;3.25;;;;;;;-141.23;100.00;62281.09;5031742;28;20053;-68
2023/08/10 02:13:57;;;;;;;14.57;3.67;;;;;;;-141.23;100.00;62281.09;5032891;28;20049;-68
2023/08/10 02:16:23;;;;;;;10.07;3.38;;;;;;;-141.23;100.00;62281.09;5032116;28;20073;-67
2023/08/10 02:18:49;;;;;;;7.75;3.05;;;;;;;-141.23;100.00;62281.09;5033269;28;20124;-68
2023/08/10 02:21:14;;;;;;;9.45;2.95;;;;;;;-141.23;100.00;62281.09;5032089;28;20053;-68
2023/08/10 02:23:40;;;;;;;10.93;3.30;;;;;;;-141.23;100.00;62281.09;5031777;28;20068;-68
2023/08/10 02:26:06;;;;;;;7.20;3.25;;;;;;;-141.23;100.00;62281.09;5032579;28;20503;-68
2023/08/10 02:28:32;;;;;;;7.55;2.90;;;;;;;-141.23;100.00;62281.09;5032046;28;20048;-68
2023/08/10 02:30:58;;;;;;;11.45;3.47;;;;;;;-141.23;100.00;62281.09;5032287;28;20042;-67
2023/08/10 02:33:24;;;;;;;8.77;3.60;;;;;;;-141.23;100.00;62281.09;5032944;28;20042;-68
2023/08/10 02:35:51;;;;;;;6.72;3.20;;;;;;;-141.23;100.00;62281.09;5016314;28;20049;-68
2023/08/10 02:38:17;;;;;;;9.63;3.63;;;;;;;-141.23;100.00;62281.09;4998929;28;20046;-68
2023/08/10 02:40:43;;;;;;;6.93;3.17;;;;;;;-141.23;100.00;62281.09;4999101;28;20111;-68
2023/08/10 02:43:08;;;;;;;9.00;3.58;;;;;;;-141.23;100.00;62281.09;5031484;28;20100;-67
2023/08/10 02:45:35;;;;;;;9.63;3.58;;;;;;;-141.23;100.00;62281.09;5015480;28;20074;-67
2023/08/10 02:48:01;;;;;;;5.60;3.42;;;;;;;-141.23;100.00;62281.09;5033429;28;20041;-67
2023/08/10 02:50:27;;;;;;;7.07;3.20;;;;;;;-141.23;100.00;62281.09;5033824;28;20041;-67
2023/08/10 02:52:54;;;;;;;10.57;3.45;;;;;;;-141.23;100.00;62281.09;5033729;28;20106;-68
2023/08/10 02:55:21;;;;;;;5.85;3.22;;;;;;;-141.23;100.00;62281.09;5032184;28;20049;-68
2023/08/10 02:57:47;;;;;;;6.57;3.40;;;;;;;-141.23;100.00;62281.09;5032184;28;20408;-68
2023/08/10 03:00:13;;;;;;;8.15;3.42;;;;;;;-141.23;100.00;62281.09;4982287;28;20037;-68
2023/08/10 03:02:39;;;;;;;9.68;3.45;;;;;;;-141.23;100.00;62281.09;5031127;28;20136;-68
2023/08/10 03:05:08;;;;;;;8.20;3.25;;;;;;;-141.23;100.00;62281.09;5047960;28;20491;-68
2023/08/10 03:07:34;;;;;;;7.55;3.17;;;;;;;-141.23;100.00;62281.09;5032015;28;20041;-68
2023/08/10 03:10:01;;;;;;;7.63;3.15;;;;;;;-141.23;100.00;62281.09;5014911;28;20084;-67
2023/08/10 03:12:29;;;;;;;7.78;3.15;;;;;;;-141.23;100.00;62281.09;5030974;28;20064;-67
2023/08/10 03:14:56;;;;;;;9.32;3.20;;;;;;;-141.23;100.00;62281.09;5031123;28;20503;-68
2023/08/10 03:17:22;;;;;;;9.00;3.40;;;;;;;-141.23;100.00;62281.09;5031120;28;20037;-68
2023/08/10 03:19:48;;;;;;;9.57;3.28;;;;;;;-141.23;100.00;62281.09;5031953;28;20073;-68
2023/08/10 03:22:15;;;;;;;10.20;3.50;;;;;;;-141.23;100.00;62281.09;5030981;28;20107;-68
2023/08/10 03:24:41;;;;;;;7.18;3.72;;;;;;;-141.23;100.00;62281.09;5031158;28;20388;-68
2023/08/10 03:27:07;;;;;;;7.25;3.42;;;;;;;-141.23;100.00;62281.09;5031101;28;20145;-68
2023/08/10 03:29:33;;;;;;;7.60;3.17;;;;;;;-141.23;100.00;62281.09;5031984;28;20045;-68
2023/08/10 03:31:59;;;;;;;8.85;3.15;;;;;;;-141.23;100.00;62281.09;5047760;28;20542;-68
2023/08/10 03:34:25;;;;;;;7.65;3.45;;;;;;;-141.23;100.00;62281.09;5031052;28;20048;-68
2023/08/10 03:36:53;;;;;;;25.83;5.55;;;;;;;-141.23;100.00;62281.09;5014344;28;20531;-68
2023/08/10 03:39:20;;;;;;;11.45;3.45;;;;;;;-141.23;100.00;62281.09;5014774;28;20110;-67
2023/08/10 03:41:46;;;;;;;16.70;4.97;;;;;;;-141.23;100.00;62281.09;5030850;28;20042;-68
2023/08/10 03:44:12;;;;;;;16.95;4.10;;;;;;;-141.23;100.00;62281.09;5031124;28;20464;-68
2023/08/10 03:46:37;;;;;;;11.55;3.33;;;;;;;-141.23;100.00;62281.09;5031901;28;20118;-67
2023/08/10 03:49:03;;;;;;;6.25;3.08;;;;;;;-141.23;100.00;62281.09;5031842;28;20467;-68
2023/08/10 03:51:29;;;;;;;8.05;3.08;;;;;;;-141.23;100.00;62281.09;5031020;28;20049;-68
2023/08/10 03:53:56;;;;;;;9.65;3.00;;;;;;;-141.23;100.00;62281.09;5033703;28;20056;-68
2023/08/10 03:56:22;;;;;;;10.68;3.40;;;;;;;-141.23;100.00;62281.09;5035342;28;20114;-68
2023/08/10 03:58:48;;;;;;;7.43;2.90;;;;;;;-141.23;100.00;62281.09;5034442;28;20045;-68
2023/08/10 04:01:13;;;;;;;9.00;3.63;;;;;;;-141.23;100.00;62281.09;5034367;28;20396;-68
2023/08/10 04:03:39;;;;;;;8.63;3.58;;;;;;;-141.23;100.00;62281.09;5034350;28;20136;-67
2023/08/10 04:06:05;;;;;;;6.93;3.42;;;;;;;-141.23;100.00;62281.09;5034549;28;20107;-68
2023/08/10 04:08:31;;;;;;;10.95;4.13;;;;;;;-141.23;100.00;62281.09;5034213;28;20443;-67
2023/08/10 04:10:57;;;;;;;10.95;3.60;;;;;;;-141.23;100.00;62281.09;5034437;28;20048;-68
2023/08/10 04:13:23;;;;;;;10.43;3.67;;;;;;;-141.23;100.00;62281.09;5034958;28;20227;-68
2023/08/10 04:15:49;;;;;;;9.00;3.53;;;;;;;-141.23;100.00;62281.09;5033896;28;20140;-68
2023/08/10 04:18:15;;;;;;;9.25;4.60;;;;;;;-141.23;100.00;62281.09;5034759;28;20041;-68
2023/08/10 04:20:41;;;;;;;7.80;3.40;;;;;;;-141.23;100.00;62281.09;5033818;28;20045;-68
2023/08/10 04:23:06;;;;;;;13.80;4.00;;;;;;;-141.23;100.00;62281.09;5033960;28;20115;-68
2023/08/10 04:25:32;;;;;;;14.65;3.53;;;;;;;-141.23;100.00;62281.09;5034739;28;20057;-67
2023/08/10 04:27:58;;;;;;;7.13;3.65;;;;;;;-141.23;100.00;62281.09;5033806;28;20040;-68
2023/08/10 04:30:29;;;;;;;8.73;3.58;;;;;;;-141.23;100.00;62281.09;5034585;28;20053;-68
2023/08/10 04:32:58;;;;;;;10.10;3.42;;;;;;;-141.23;100.00;62281.09;5034556;28;20046;-68
2023/08/10 04:35:23;;;;;;;8.48;3.72;;;;;;;-141.23;100.00;62281.09;5034304;28;20045;-68
2023/08/10 04:37:53;;;;;;;9.95;3.88;;;;;;;-141.23;100.00;62281.09;5016999;28;20111;-68
2023/08/10 04:40:19;;;;;;;12.32;4.20;;;;;;;-141.23;100.00;62281.09;5034549;28;20388;-68
2023/08/10 04:42:45;;;;;;;10.60;3.60;;;;;;;-141.23;100.00;62281.09;5033489;28;20451;-68
2023/08/10 04:45:11;;;;;;;5.68;3.00;;;;;;;-141.23;100.00;62281.09;5033419;28;20041;-68
2023/08/10 04:47:37;;;;;;;13.73;4.70;;;;;;;-141.23;100.00;62281.09;5034336;28;20046;-68
2023/08/10 04:50:03;;;;;;;18.13;5.22;;;;;;;-141.23;100.00;62281.09;5034540;28;20048;-68
2023/08/10 04:52:30;;;;;;;6.65;2.92;;;;;;;-141.23;100.00;62281.09;5033381;28;20075;-68
2023/08/10 04:54:56;;;;;;;7.95;3.38;;;;;;;-141.23;100.00;62281.09;5017089;28;20045;-68
2023/08/10 04:57:22;;;;;;;9.65;3.00;;;;;;;-141.23;100.00;62281.09;5033206;28;20067;-68
2023/08/10 05:00:46;;;;;;;5.72;3.22;;;;;;;-141.23;100.00;62281.09;5034162;28;20103;-68
2023/08/10 05:04:10;;;;;;;8.10;3.55;;;;;;;-141.23;100.00;62281.09;5016525;28;20041;-68
2023/08/10 05:07:37;;;;;;;7.88;3.03;;;;;;;-141.23;100.00;62281.09;5034022;28;20128;-67
2023/08/10 05:10:05;;;;;;;7.47;3.33;;;;;;;-141.23;100.00;62281.09;5033035;28;20068;-68
2023/08/10 05:12:31;;;;;;;9.43;3.03;;;;;;;-141.23;100.00;62281.09;5034106;28;20056;-68
2023/08/10 05:14:57;;;;;;;9.77;2.85;;;;;;;-141.23;100.00;62281.09;5034168;28;20065;-69
2023/08/10 05:17:22;;;;;;;10.15;2.83;;;;;;;-141.23;100.00;62281.09;5032978;28;20174;-68
2023/08/10 05:19:48;;;;;;;8.43;3.17;;;;;;;-141.23;100.00;62281.09;5033798;28;20040;-68
2023/08/10 05:22:14;;;;;;;7.45;3.20;;;;;;;-141.23;100.00;62281.09;5033746;28;20133;-68
2023/08/10 05:24:40;;;;;;;8.90;3.03;;;;;;;-141.23;100.00;62281.09;5032530;28;20387;-68
2023/08/10 05:27:06;;;;;;;5.57;3.78;;;;;;;-141.23;100.00;62281.09;5033697;28;20120;-67
2023/08/10 05:29:32;;;;;;;7.60;3.40;;;;;;;-141.23;100.00;62281.09;5034112;28;20041;-69
2023/08/10 05:31:58;;;;;;;8.98;2.88;;;;;;;-141.23;100.00;62281.09;5050356;28;20464;-69
2023/08/10 05:34:23;;;;;;;8.60;3.20;;;;;;;-141.23;100.00;62281.09;5034031;28;20068;-69
2023/08/10 05:36:50;;;;;;;6.38;3.03;;;;;;;-141.23;100.00;62281.09;5018043;28;20092;-68
2023/08/10 05:39:16;;;;;;;9.70;3.60;;;;;;;-141.23;100.00;62281.09;5033535;28;20037;-68
2023/08/10 05:41:42;;;;;;;10.30;3.22;;;;;;;-141.23;100.00;62281.09;5032384;28;20026;-68
2023/08/10 05:44:07;;;;;;;10.40;3.50;;;;;;;-141.23;100.00;62281.09;5032391;28;20475;-68
2023/08/10 05:46:33;;;;;;;6.15;2.90;;;;;;;-141.23;100.00;62281.09;5032492;28;20045;-68
2023/08/10 05:48:59;;;;;;;9.65;3.00;;;;;;;-141.23;100.00;62281.09;5032213;28;20045;-68
2023/08/10 05:51:24;;;;;;;7.88;3.20;;;;;;;-141.23;100.00;62281.09;5033078;28;20388;-69
2023/08/10 05:53:50;;;;;;;10.00;2.90;;;;;;;-141.23;100.00;62281.09;5033561;28;20132;-73
2023/08/10 05:56:16;;;;;;;8.20;3.00;;;;;;;-141.23;100.00;62281.09;5015881;28;20118;-68
2023/08/10 05:58:42;;;;;;;6.50;2.95;;;;;;;-141.23;100.00;62281.09;5049368;28;20041;-68
2023/08/10 06:01:07;;;;;;;13.20;4.15;;;;;;;-141.23;100.00;62281.09;5033267;28;20455;-68
2023/08/10 06:03:33;;;;;;;4.60;2.85;;;;;;;-141.23;100.00;62281.09;5032226;28;20042;-68
2023/08/10 06:06:00;;;;;;;8.70;3.42;;;;;;;-141.23;100.00;62281.09;5033380;28;20494;-69
2023/08/10 06:08:27;;;;;;;5.38;2.80;;;;;;;-141.23;100.00;62281.09;5033663;28;20128;-69
2023/08/10 06:10:53;;;;;;;10.55;3.40;;;;;;;-141.23;100.00;62281.09;5033360;28;20107;-68
2023/08/10 06:13:18;;;;;;;11.60;3.80;;;;;;;-141.23;100.00;62281.09;5032113;28;20463;-68
2023/08/10 06:15:46;;;;;;;16.25;3.58;;;;;;;-141.23;100.00;62281.09;5032704;28;20111;-68
2023/08/10 06:18:13;;;;;;;11.07;3.00;;;;;;;-141.23;100.00;62281.09;5033535;28;20499;-68
2023/08/10 06:20:40;;;;;;;9.38;2.70;;;;;;;-141.23;100.00;62281.09;5015708;28;20491;-68
2023/08/10 06:23:07;;;;;;;7.50;3.00;;;;;;;-141.23;100.00;62281.09;5032573;28;20143;-69
2023/08/10 06:25:33;;;;;;;9.13;3.17;;;;;;;-141.23;100.00;62281.09;5032440;28;20041;-68
2023/08/10 06:27:59;;;;;;;9.32;3.55;;;;;;;-141.23;100.00;62281.09;5032539;28;20144;-68
2023/08/10 06:30:25;;;;;;;10.85;3.30;;;;;;;-141.23;100.00;62281.09;5031435;28;20119;-68
2023/08/10 06:32:51;;;;;;;8.80;3.35;;;;;;;-141.23;100.00;62281.09;5031430;28;20091;-68
2023/08/10 06:35:20;;;;;;;8.30;3.05;;;;;;;-141.23;100.00;62281.09;5031252;28;20052;-69
2023/08/10 06:37:48;;;;;;;15.65;3.10;;;;;;;-141.23;100.00;62281.09;5031440;28;20048;-68
2023/08/10 06:40:15;;;;;;;11.32;2.67;;;;;;;-141.23;100.00;62281.09;5032287;28;20045;-68
2023/08/10 06:42:41;;;;;;;10.00;2.85;;;;;;;-141.23;100.00;62281.09;5032623;28;20077;-68
2023/08/10 06:45:15;;;;;;;10.55;3.20;;;;;;;-141.23;100.00;62281.09;5032392;28;20049;-69
2023/08/10 06:47:40;;;;;;;6.53;2.90;;;;;;;-141.23;100.00;62281.09;4999616;28;20103;-68
2023/08/10 06:50:08;;;;;;;10.48;2.65;;;;;;;-141.23;100.00;62281.09;5033034;28;20057;-69
2023/08/10 06:52:35;;;;;;;7.32;3.17;;;;;;;-141.23;100.00;62281.09;5032377;28;20048;-68
2023/08/10 06:55:00;;;;;;;5.95;2.55;;;;;;;-141.23;100.00;62281.09;5015630;28;20468;-69
2023/08/10 06:57:26;;;;;;;9.95;2.97;;;;;;;-141.23;100.00;62281.09;5031352;28;20037;-69
2023/08/10 06:59:52;;;;;;;7.10;2.92;;;;;;;-141.23;100.00;62281.09;5032088;28;20044;-69
2023/08/10 07:02:18;;;;;;;7.40;2.90;;;;;;;-141.23;100.00;62281.09;5030918;28;20042;-68
2023/08/10 07:04:45;;;;;;;9.68;2.53;;;;;;;-141.23;100.00;62281.09;5032128;28;20045;-68
2023/08/10 07:07:12;;;;;;;7.72;2.75;;;;;;;-141.23;100.00;62281.09;5031969;28;20124;-68
2023/08/10 07:09:37;;;;;;;11.82;3.15;;;;;;;-141.23;100.00;62281.09;5032049;28;20464;-69
2023/08/10 07:12:04;;;;;;;6.03;2.70;;;;;;;-141.23;100.00;62281.09;5031910;28;20115;-69
2023/08/10 07:14:30;;;;;;;8.40;3.08;;;;;;;-141.23;100.00;62281.09;5047652;28;20045;-68
2023/08/10 07:16:57;;;;;;;15.43;2.67;;;;;;;-141.23;100.00;62281.09;5015067;28;20045;-68
2023/08/10 07:19:22;;;;;;;12.10;3.83;;;;;;;-141.23;100.00;62281.09;5031095;28;20160;-69
2023/08/10 07:21:48;;;;;;;9.68;3.00;;;;;;;-141.23;100.00;62281.09;4998329;28;20052;-69
2023/08/10 07:24:14;;;;;;;11.85;2.70;;;;;;;-141.23;100.00;62281.09;5031194;28;20103;-68
2023/08/10 07:26:41;;;;;;;8.02;2.10;;;;;;;-141.23;100.00;62281.09;5033159;28;20053;-69
2023/08/10 07:29:08;;;;;;;5.00;2.53;;;;;;;-141.23;100.00;62281.09;5017404;28;20468;-70
2023/08/10 07:31:34;;;;;;;6.43;2.08;;;;;;;-141.23;100.00;62281.09;5018357;28;20059;-70
2023/08/10 07:34:00;;;;;;;7.55;2.35;;;;;;;-141.23;100.00;62281.09;5034758;28;20061;-70
2023/08/10 07:36:26;;;;;;;5.93;2.30;;;;;;;-141.23;100.00;62281.09;5035562;28;20083;-70
2023/08/10 07:38:55;;;;;;;5.00;2.45;;;;;;;-141.23;100.00;62281.09;5034819;28;20073;-70
2023/08/10 07:41:23;;;;;;;6.28;2.28;;;;;;;-141.23;100.00;62281.09;5035559;28;20059;-70
2023/08/10 07:43:49;;;;;;;5.63;1.85;;;;;;;-141.23;100.00;62281.09;5035275;28;20049;-72
2023/08/10 07:46:15;;;;;;;11.30;1.70;;;;;;;-141.23;100.00;62281.09;5034485;28;20049;-70
2023/08/10 07:48:41;;;;;;;7.90;1.98;;;;;;;-141.23;100.00;62281.09;5034472;28;20038;-70
2023/08/10 07:51:07;;;;;;;4.18;1.55;;;;;;;-141.23;100.00;62281.09;5035347;28;20395;-71
2023/08/10 07:53:33;;;;;;;9.75;1.92;;;;;;;-141.23;100.00;62281.09;5034292;28;20538;-70
2023/08/10 07:55:59;;;;;;;11.15;2.10;;;;;;;-141.23;100.00;62281.09;4968981;28;20044;-71
2023/08/10 07:58:25;;;;;;;6.10;1.75;;;;;;;-141.23;100.00;62281.09;5035229;28;20059;-70
2023/08/10 08:00:51;;;;;;;6.32;1.73;;;;;;;-141.23;100.00;62281.09;5050892;28;20045;-70
2023/08/10 08:03:17;;;;;;;7.50;2.00;;;;;;;-141.23;100.00;62281.09;5034143;28;20388;-70
2023/08/10 08:05:43;;;;;;;8.20;2.30;;;;;;;-141.23;100.00;62281.09;5035000;28;20046;-70
2023/08/10 08:08:10;;;;;;;5.35;1.92;;;;;;;-141.23;100.00;62281.09;5001199;28;20095;-71
2023/08/10 08:10:36;;;;;;;6.93;2.00;;;;;;;-141.23;100.00;62281.09;5017516;28;20373;-71
2023/08/10 08:13:08;;;;;;;8.68;2.08;;;;;;;-141.23;100.00;62281.09;5001563;28;20502;-70
2023/08/10 08:15:34;;;;;;;9.05;2.05;;;;;;;-141.23;100.00;62281.09;5034604;28;20140;-70
2023/08/10 08:18:38;;;;;;;10.98;2.60;;;;;;;-141.23;100.00;62281.09;5034047;28;20124;-70
2023/08/10 08:21:08;;;;;;;14.02;2.35;;;;;;;-141.23;100.00;62281.09;5034175;28;20049;-70
2023/08/10 08:23:34;;;;;;;7.72;2.00;;;;;;;-141.23;100.00;62281.09;5033882;28;20063;-70
2023/08/10 08:26:00;;;;;;;10.30;2.13;;;;;;;-141.23;100.00;62281.09;5034675;28;20144;-70
2023/08/10 08:28:26;;;;;;;7.22;2.00;;;;;;;-141.23;100.00;62281.09;5034445;28;20072;-70
2023/08/10 08:30:53;;;;;;;10.02;2.67;;;;;;;-141.23;100.00;62281.09;5017710;28;20041;-69
2023/08/10 08:33:19;;;;;;;5.35;2.30;;;;;;;-141.23;100.00;62281.09;5034797;28;20052;-69
2023/08/10 08:35:46;;;;;;;9.20;2.20;;;;;;;-141.23;100.00;62281.09;5018524;28;20063;-69
2023/08/10 08:38:14;;;;;;;10.95;2.30;;;;;;;-141.23;100.00;62281.09;5017851;28;20495;-69
2023/08/10 08:40:40;;;;;;;9.32;2.33;;;;;;;-141.23;100.00;62281.09;5017406;28;20045;-69
2023/08/10 08:43:07;;;;;;;11.10;2.55;;;;;;;-141.23;100.00;62281.09;5033556;28;20579;-69
2023/08/10 08:45:33;;;;;;;6.88;2.22;;;;;;;-141.23;100.00;62281.09;5033401;28;20052;-70
2023/08/10 08:48:02;;;;;;;6.38;2.00;;;;;;;-141.23;100.00;62281.09;5017001;28;20042;-69
2023/08/10 08:50:28;;;;;;;5.70;1.95;;;;;;;-141.23;100.00;62281.09;5012517;28;20404;-70
2023/08/10 08:52:55;;;;;;;6.80;2.00;;;;;;;-141.23;100.00;62281.09;4996385;28;20042;-70
2023/08/10 08:55:21;;;;;;;5.50;2.13;;;;;;;-141.23;100.00;62281.09;4996358;28;20088;-70
2023/08/10 08:57:47;;;;;;;7.55;1.73;;;;;;;-141.23;100.00;62281.09;4980157;28;20096;-72
2023/08/10 09:00:14;;;;;;;7.50;2.13;;;;;;;-141.23;100.00;62281.09;4979858;28;20045;-71
2023/08/10 09:02:40;;;;;;;10.00;2.13;;;;;;;-141.23;100.00;62281.09;4995953;28;20061;-70
2023/08/10 09:05:08;;;;;;;7.53;2.10;;;;;;;-141.23;100.00;62281.09;4979489;28;20049;-71
2023/08/10 09:07:34;;;;;;;10.35;1.83;;;;;;;-141.23;100.00;62281.09;4979635;28;20045;-70
2023/08/10 09:10:00;;;;;;;8.15;1.90;;;;;;;-141.23;100.00;62281.09;5012119;28;20042;-71
2023/08/10 09:12:32;;;;;;;15.43;2.25;;;;;;;-141.23;100.00;62281.09;4979585;28;20376;-70
2023/08/10 09:15:16;;;;;;;9.48;2.00;;;;;;;-141.23;100.00;62281.09;4979622;28;20053;-70
2023/08/10 09:17:53;;;;;;;6.55;1.77;;;;;;;-141.23;100.00;62281.09;4963261;28;20060;-70
2023/08/10 09:20:22;;;;;;;4.75;1.85;;;;;;;-141.23;100.00;62281.09;4997298;28;20440;-69
2023/08/10 09:22:50;;;;;;;6.63;2.03;;;;;;;-141.23;100.00;62281.09;5016296;28;20105;-70
2023/08/10 09:25:17;;;;;;;20.13;2.20;;;;;;;-141.23;100.00;62281.09;5034181;28;20037;-70
2023/08/10 09:27:44;;;;;;;7.20;2.20;;;;;;;-141.23;100.00;62281.09;5016623;28;20075;-70
2023/08/10 09:30:10;;;;;;;10.68;2.60;;;;;;;-141.23;100.00;62281.09;5033479;28;20049;-71
2023/08/10 09:32:38;;;;;;;7.15;2.08;;;;;;;-141.23;100.00;62281.09;5016688;28;20049;-70
2023/08/10 09:35:05;;;;;;;7.97;2.30;;;;;;;-141.23;100.00;62281.09;5000679;28;20030;-70
2023/08/10 09:37:32;;;;;;;9.07;2.35;;;;;;;-141.23;100.00;62281.09;5000697;28;20052;-70
2023/08/10 09:40:07;;;;;;;9.25;2.30;;;;;;;-141.23;100.00;62281.09;5015998;28;20072;-69
2023/08/10 09:42:34;;;;;;;10.25;2.45;;;;;;;-141.23;100.00;62281.09;5032477;28;20135;-69
2023/08/10 09:45:04;;;;;;;8.52;2.40;;;;;;;-141.23;100.00;62281.09;5015871;28;20538;-69
2023/08/10 09:47:36;;;;;;;4.03;2.05;;;;;;;-141.23;100.00;62281.09;5032923;28;20041;-70
2023/08/10 09:50:05;;;;;;;9.90;2.67;;;;;;;-141.23;100.00;62281.09;5032502;28;20041;-69
2023/08/10 09:52:34;;;;;;;9.93;2.37;;;;;;;-141.23;100.00;62281.09;5015673;28;20041;-70
2023/08/10 09:55:00;;;;;;;12.98;2.58;;;;;;;-141.23;100.00;62281.09;5032246;28;20631;-70
2023/08/10 09:57:29;;;;;;;10.32;2.30;;;;;;;-141.23;100.00;62281.09;5015769;28;20049;-69
2023/08/10 09:59:55;;;;;;;10.40;2.70;;;;;;;-141.23;100.00;62281.09;4999716;28;20041;-69
2023/08/10 10:02:23;;;;;;;9.35;2.58;;;;;;;-141.23;100.00;62281.09;5015486;28;20060;-69
2023/08/10 10:04:49;;;;;;;18.55;2.80;;;;;;;-141.23;100.00;62281.09;4999565;28;20128;-69
2023/08/10 10:07:22;;;;;;;6.53;2.20;;;;;;;-141.23;100.00;62281.09;5015313;28;20053;-69
2023/08/10 10:09:50;;;;;;;9.05;2.47;;;;;;;-141.23;100.00;62281.09;5032302;28;20400;-69
2023/08/10 10:12:16;;;;;;;8.98;2.92;;;;;;;-141.23;100.00;62281.09;5015439;28;20037;-69
2023/08/10 10:14:43;;;;;;;11.32;3.08;;;;;;;-141.23;100.00;62281.09;5015192;28;20523;-69
2023/08/10 10:17:11;;;;;;;7.82;3.10;;;;;;;-141.23;100.00;62281.09;5015555;28;20057;-69
2023/08/10 10:19:40;;;;;;;12.18;3.20;;;;;;;-141.23;100.00;62281.09;4998978;28;20053;-69
2023/08/10 10:22:07;;;;;;;7.72;2.30;;;;;;;-141.23;100.00;62281.09;5031478;28;20037;-69
2023/08/10 10:24:34;;;;;;;9.38;2.20;;;;;;;-141.23;100.00;62281.09;5031250;28;20033;-70
2023/08/10 10:27:08;;;;;;;12.52;2.20;;;;;;;-141.23;100.00;62281.09;5031388;28;20060;-70
2023/08/10 10:30:01;;;;;;;13.15;2.05;;;;;;;-141.23;100.00;62281.09;5032494;28;20045;-70
2023/08/10 10:32:28;;;;;;;8.43;2.08;;;;;;;-141.23;100.00;62281.09;5030157;28;20053;-70
2023/08/10 10:34:53;;;;;;;6.00;2.13;;;;;;;-141.23;100.00;62281.09;5048106;28;20128;-69
2023/08/10 10:37:30;;;;;;;8.23;1.90;;;;;;;-141.23;100.00;62281.09;5032722;28;20045;-70
2023/08/10 10:40:16;;;;;;;10.02;2.15;;;;;;;-141.23;100.00;62281.09;5031707;28;20041;-69
2023/08/10 10:43:00;;;;;;;6.15;2.35;;;;;;;-141.23;100.00;62281.09;5031912;28;20135;-69
2023/08/10 10:45:26;;;;;;;12.10;2.38;;;;;;;-141.23;100.00;62281.09;5032835;28;20045;-69
2023/08/10 10:47:55;;;;;;;5.63;2.00;;;;;;;-141.23;100.00;62281.09;5015441;28;20505;-69
2023/08/10 10:50:24;;;;;;;11.18;2.40;;;;;;;-141.23;100.00;62281.09;5031471;28;20041;-69
2023/08/10 10:52:54;;;;;;;9.43;2.42;;;;;;;-141.23;100.00;62281.09;5031278;28;20128;-69
2023/08/10 10:55:26;;;;;;;7.53;2.45;;;;;;;-141.23;100.00;62281.09;5014668;28;20042;-69
2023/08/10 10:57:52;;;;;;;9.88;2.28;;;;;;;-141.23;100.00;62281.09;5032277;28;20053;-69
2023/08/10 11:00:23;;;;;;;6.97;1.90;;;;;;;-141.23;100.00;62281.09;5014694;28;20038;-69
2023/08/10 11:02:49;;;;;;;11.52;2.00;;;;;;;-141.23;100.00;62281.09;4998206;28;20046;-69
2023/08/10 11:05:16;;;;;;;5.68;2.10;;;;;;;-141.23;100.00;62281.09;5030954;28;20072;-70
2023/08/10 11:07:44;;;;;;;5.50;1.73;;;;;;;-141.23;100.00;62281.09;5031179;28;20073;-69
2023/08/10 11:10:11;;;;;;;11.57;1.77;;;;;;;-141.23;100.00;62281.09;5031730;28;20107;-70
2023/08/10 11:12:40;;;;;;;4.95;1.80;;;;;;;-141.23;100.00;62281.09;5030885;28;20048;-69
2023/08/10 11:15:08;;;;;;;4.93;1.67;;;;;;;-141.23;100.00;62281.09;5014224;28;20061;-69